createdAt,value
2022-10-23T00:01:35.267Z,94.31
2022-10-23T00:04:06.735Z,94.15
2022-10-23T00:06:35.942Z,94.45
2022-10-23T00:09:07.388Z,94.78
2022-10-23T00:11:36.411Z,95.39
2022-10-23T00:14:07.169Z,95.52
2022-10-23T00:16:35.031Z,95.23
2022-10-23T00:19:03.790Z,95.32
2022-10-23T00:21:31.580Z,95.33
2022-10-23T00:23:59.464Z,95.65
2022-10-23T00:26:27.849Z,95.96
2022-10-23T00:28:56.516Z,95.85
2022-10-23T00:31:25.174Z,96.15
2022-10-23T00:33:53.630Z,95.96
2022-10-23T00:36:22.355Z,95.97
2022-10-23T00:38:51.104Z,95.63
2022-10-23T00:41:24.833Z,95.63
2022-10-23T00:44:04.172Z,95.60
2022-10-23T00:46:32.929Z,96.16
2022-10-23T00:49:01.351Z,95.68
2022-10-23T00:51:34.705Z,95.76
2022-10-23T00:54:25.017Z,95.58
2022-10-23T00:56:54.665Z,95.71
2022-10-23T00:59:22.939Z,95.43
2022-10-23T01:01:51.414Z,95.76
2022-10-23T01:04:19.869Z,95.56
2022-10-23T01:07:20.182Z,94.84
2022-10-23T01:10:15.193Z,94.66
2022-10-23T01:13:02.850Z,94.95
2022-10-23T01:16:05.882Z,94.78
2022-10-23T01:18:46.980Z,95.03
2022-10-23T01:21:22.366Z,94.45
2022-10-23T01:24:28.611Z,94.43
2022-10-23T01:27:15.294Z,94.64
2022-10-23T01:30:01.573Z,94.50
2022-10-23T01:33:04.301Z,94.39
2022-10-23T01:35:49.046Z,94.52
2022-10-23T01:38:29.033Z,94.53
2022-10-23T01:41:06.679Z,94.51
2022-10-23T01:43:45.330Z,94.41
2022-10-23T01:46:17.037Z,94.16
2022-10-23T01:48:51.374Z,94.38
2022-10-23T01:51:22.062Z,94.15
2022-10-23T01:53:52.136Z,94.20
2022-10-23T01:56:25.954Z,94.77
2022-10-23T01:58:56.641Z,94.92
2022-10-23T02:01:29.528Z,94.67
2022-10-23T02:06:32.819Z,95.12
2022-10-23T02:09:00.871Z,95.04
2022-10-23T02:11:31.429Z,95.03
2022-10-23T02:14:11.926Z,95.07
2022-10-23T02:16:57.576Z,95.75
2022-10-23T02:19:33.280Z,95.33
2022-10-23T02:22:35.071Z,95.91
2022-10-23T02:25:13.221Z,95.43
2022-10-23T02:27:48.263Z,95.42
2022-10-23T02:30:19.244Z,95.27
2022-10-23T02:32:54.831Z,95.23
2022-10-23T02:35:24.822Z,95.27
2022-10-23T02:38:00.974Z,95.45
2022-10-23T02:40:43.187Z,96.05
2022-10-23T02:43:10.799Z,95.60
2022-10-23T02:45:59.128Z,95.36
2022-10-23T02:48:39.257Z,95.24
2022-10-23T02:51:50.077Z,95.69
2022-10-23T02:54:29.907Z,95.62
2022-10-23T02:57:06.162Z,95.71
2022-10-23T02:59:43.842Z,95.78
2022-10-23T03:02:41.306Z,95.96
2022-10-23T03:05:14.360Z,96.09
2022-10-23T03:07:44.152Z,96.37
2022-10-23T03:10:14.174Z,96.16
2022-10-23T03:12:42.661Z,97.09
2022-10-23T03:15:12.536Z,96.49
2022-10-23T03:17:41.110Z,96.42
2022-10-23T03:20:10.451Z,96.54
2022-10-23T03:22:38.736Z,96.50
2022-10-23T03:25:08.277Z,96.55
2022-10-23T03:27:36.893Z,96.75
2022-10-23T03:30:07.319Z,96.60
2022-10-23T03:32:35.692Z,96.58
2022-10-23T03:35:04.255Z,96.73
2022-10-23T03:37:32.820Z,96.75
2022-10-23T03:40:07.689Z,96.67
2022-10-23T03:42:37.204Z,96.95
2022-10-23T03:45:07.805Z,96.85
2022-10-23T03:47:43.059Z,96.76
2022-10-23T03:50:13.533Z,96.56
2022-10-23T03:52:41.466Z,96.50
2022-10-23T03:55:10.016Z,96.46
2022-10-23T03:57:38.291Z,96.87
2022-10-23T04:00:07.203Z,96.96
2022-10-23T04:02:45.317Z,96.65
2022-10-23T04:05:13.813Z,96.67
2022-10-23T04:07:42.108Z,96.84
2022-10-23T04:10:11.341Z,97.35
2022-10-23T04:12:40.897Z,97.11
2022-10-23T04:15:09.201Z,96.66
2022-10-23T04:17:37.184Z,96.57
2022-10-23T04:20:05.819Z,96.40
2022-10-23T04:22:33.605Z,96.47
2022-10-23T04:25:01.533Z,96.54
2022-10-23T04:27:30.922Z,96.66
2022-10-23T04:29:59.224Z,96.93
2022-10-23T04:32:27.577Z,97.72
2022-10-23T04:34:55.282Z,97.47
2022-10-23T04:37:23.957Z,97.50
2022-10-23T04:39:51.781Z,97.06
2022-10-23T04:42:19.777Z,97.10
2022-10-23T04:44:48.382Z,97.15
2022-10-23T04:47:16.201Z,97.03
2022-10-23T04:49:56.259Z,97.32
2022-10-23T04:52:57.765Z,97.08
2022-10-23T04:55:25.525Z,97.13
2022-10-23T04:58:27.615Z,97.42
2022-10-23T05:00:58.430Z,97.51
2022-10-23T05:03:27.629Z,97.68
2022-10-23T05:05:56.314Z,97.80
2022-10-23T05:08:53.242Z,97.79
2022-10-23T05:11:36.607Z,97.84
2022-10-23T05:14:07.867Z,97.10
2022-10-23T05:17:00.033Z,96.74
2022-10-23T05:19:34.785Z,96.52
2022-10-23T05:22:02.590Z,96.25
2022-10-23T05:24:49.677Z,96.08
2022-10-23T05:27:21.151Z,96.02
2022-10-23T05:29:49.004Z,96.10
2022-10-23T05:34:54.524Z,96.23
2022-10-23T05:37:25.819Z,95.97
2022-10-23T05:40:00.742Z,95.81
2022-10-23T05:42:28.739Z,95.94
2022-10-23T05:44:58.075Z,96.20
2022-10-23T05:47:46.884Z,95.87
2022-10-23T05:50:36.930Z,96.29
2022-10-23T05:53:42.452Z,95.90
2022-10-23T05:56:24.763Z,95.84
2022-10-23T05:59:03.303Z,95.89
2022-10-23T06:01:51.443Z,96.16
2022-10-23T06:04:42.627Z,96.40
2022-10-23T06:07:13.293Z,96.45
2022-10-23T06:09:44.077Z,96.41
2022-10-23T06:12:11.881Z,96.87
2022-10-23T06:15:08.571Z,96.42
2022-10-23T06:18:01.214Z,96.67
2022-10-23T06:20:36.269Z,96.48
2022-10-23T06:23:09.440Z,96.46
2022-10-23T06:26:08.885Z,96.49
2022-10-23T06:28:49.674Z,96.21
2022-10-23T06:31:26.566Z,96.01
2022-10-23T06:33:56.092Z,95.92
2022-10-23T06:36:24.208Z,95.85
2022-10-23T06:38:53.814Z,95.85
2022-10-23T06:41:23.182Z,95.77
2022-10-23T06:43:55.138Z,95.67
2022-10-23T06:46:30.193Z,95.98
2022-10-23T06:49:27.715Z,95.63
2022-10-23T06:51:56.176Z,95.34
2022-10-23T06:54:24.154Z,95.24
2022-10-23T06:56:55.574Z,95.29
2022-10-23T06:59:30.705Z,94.95
2022-10-23T07:02:24.235Z,94.75
2022-10-23T07:04:52.078Z,94.53
2022-10-23T07:07:20.362Z,94.75
2022-10-23T07:09:49.592Z,94.41
2022-10-23T07:12:40.909Z,94.22
2022-10-23T07:15:27.872Z,94.35
2022-10-23T07:17:56.354Z,94.36
2022-10-23T07:20:24.605Z,94.34
2022-10-23T07:22:54.525Z,94.11
2022-10-23T07:25:29.155Z,93.89
2022-10-23T07:27:57.581Z,93.88
2022-10-23T07:30:26.534Z,93.77
2022-10-23T07:32:55.753Z,93.59
2022-10-23T07:35:52.007Z,93.68
2022-10-23T07:38:25.689Z,93.30
2022-10-23T07:40:58.204Z,93.30
2022-10-23T07:43:26.595Z,93.40
2022-10-23T07:45:55.221Z,93.24
2022-10-23T07:48:31.190Z,93.07
2022-10-23T07:51:08.380Z,92.72
2022-10-23T07:53:39.312Z,92.05
2022-10-23T07:56:26.269Z,91.71
2022-10-23T07:59:14.570Z,91.43
2022-10-23T08:01:45.873Z,91.79
2022-10-23T08:04:14.383Z,92.15
2022-10-23T08:06:56.411Z,92.03
2022-10-23T08:09:25.209Z,92.35
2022-10-23T08:11:52.988Z,92.37
2022-10-23T08:14:21.023Z,92.26
2022-10-23T08:16:49.313Z,92.28
2022-10-23T08:19:19.661Z,91.64
2022-10-23T08:21:48.485Z,91.51
2022-10-23T08:24:17.969Z,91.55
2022-10-23T08:26:46.380Z,91.89
2022-10-23T08:29:14.632Z,92.05
2022-10-23T08:31:42.799Z,92.19
2022-10-23T08:34:25.853Z,92.15
2022-10-23T08:36:54.286Z,92.36
2022-10-23T08:39:22.086Z,92.27
2022-10-23T08:42:03.095Z,92.26
2022-10-23T08:44:36.476Z,92.24
2022-10-23T08:47:42.786Z,91.76
2022-10-23T08:50:47.456Z,91.97
2022-10-23T08:53:41.189Z,91.80
2022-10-23T08:56:37.903Z,92.09
2022-10-23T08:59:28.240Z,92.33
2022-10-23T09:02:05.451Z,92.26
2022-10-23T09:04:34.503Z,92.21
2022-10-23T09:07:32.319Z,92.21
2022-10-23T09:10:06.187Z,92.11
2022-10-23T09:12:34.115Z,92.11
2022-10-23T09:15:17.353Z,91.71
2022-10-23T09:17:46.171Z,91.43
2022-10-23T09:20:22.394Z,91.40
2022-10-23T09:22:54.942Z,91.19
2022-10-23T09:25:26.993Z,91.40
2022-10-23T09:28:00.194Z,91.29
2022-10-23T09:30:39.176Z,91.11
2022-10-23T09:33:20.141Z,90.77
2022-10-23T09:35:59.994Z,90.73
2022-10-23T09:38:27.763Z,90.63
2022-10-23T09:40:56.238Z,90.80
2022-10-23T09:43:27.422Z,91.02
2022-10-23T09:46:03.070Z,91.24
2022-10-23T09:48:31.243Z,91.29
2022-10-23T09:51:02.190Z,91.43
2022-10-23T09:53:35.885Z,91.28
2022-10-23T09:56:24.820Z,91.35
2022-10-23T09:58:59.298Z,91.14
2022-10-23T10:01:33.181Z,90.82
2022-10-23T10:04:17.565Z,90.73
2022-10-23T10:06:46.189Z,90.75
2022-10-23T10:09:16.542Z,90.90
2022-10-23T10:11:49.993Z,91.15
2022-10-23T10:14:39.388Z,90.53
2022-10-23T10:17:19.921Z,90.39
2022-10-23T10:19:50.675Z,90.50
2022-10-23T10:22:42.530Z,90.52
2022-10-23T10:25:21.446Z,90.21
2022-10-23T10:28:05.302Z,90.19
2022-10-23T10:30:56.510Z,90.35
2022-10-23T10:33:47.720Z,90.50
2022-10-23T10:36:30.671Z,90.76
2022-10-23T10:39:03.948Z,90.75
2022-10-23T10:41:56.076Z,90.60
2022-10-23T10:44:53.402Z,90.45
2022-10-23T10:47:29.309Z,90.16
2022-10-23T10:50:23.061Z,89.99
2022-10-23T10:53:24.272Z,89.89
2022-10-23T10:55:55.576Z,90.16
2022-10-23T10:58:32.022Z,89.94
2022-10-23T11:01:03.437Z,89.90
2022-10-23T11:03:40.286Z,90.03
2022-10-23T11:06:16.242Z,90.12
2022-10-23T11:08:56.537Z,89.91
2022-10-23T11:11:45.942Z,89.76
2022-10-23T11:14:19.537Z,89.75
2022-10-23T11:16:53.207Z,89.58
2022-10-23T11:19:43.297Z,89.70
2022-10-23T11:22:24.300Z,89.08
2022-10-23T11:25:32.195Z,89.07
2022-10-23T11:28:23.690Z,88.84
2022-10-23T11:31:22.527Z,88.60
2022-10-23T11:34:24.335Z,88.74
2022-10-23T11:36:58.758Z,88.69
2022-10-23T11:39:29.682Z,89.02
2022-10-23T11:42:08.834Z,89.43
2022-10-23T11:44:36.538Z,89.97
2022-10-23T11:47:39.649Z,88.88
2022-10-23T11:50:07.935Z,88.25
2022-10-23T11:52:45.447Z,88.70
2022-10-23T11:55:24.319Z,88.45
2022-10-23T11:58:34.912Z,88.12
2022-10-23T12:01:18.327Z,88.02
2022-10-23T12:03:54.462Z,88.06
2022-10-23T12:06:28.485Z,87.89
2022-10-23T12:09:06.775Z,88.02
2022-10-23T12:12:02.757Z,88.08
2022-10-23T12:14:43.471Z,87.15
2022-10-23T12:17:41.710Z,87.53
2022-10-23T12:20:22.807Z,86.86
2022-10-23T12:23:20.932Z,86.49
2022-10-23T12:26:16.404Z,85.71
2022-10-23T12:29:12.093Z,85.55
2022-10-23T12:31:59.139Z,85.65
2022-10-23T12:35:08.359Z,85.70
2022-10-23T12:38:00.656Z,85.89
2022-10-23T12:40:30.220Z,85.22
2022-10-23T12:43:00.846Z,84.88
2022-10-23T12:45:34.273Z,84.95
2022-10-23T12:48:02.057Z,84.37
2022-10-23T12:50:32.161Z,84.06
2022-10-23T12:53:07.690Z,83.67
2022-10-23T12:55:54.826Z,83.34
2022-10-23T12:58:26.249Z,83.77
2022-10-23T13:01:00.313Z,83.88
2022-10-23T13:03:30.600Z,84.04
2022-10-23T13:06:00.383Z,83.88
2022-10-23T13:08:41.122Z,84.12
2022-10-23T13:11:30.767Z,84.08
2022-10-23T13:14:01.712Z,84.48
2022-10-23T13:16:29.591Z,84.12
2022-10-23T13:18:57.337Z,83.66
2022-10-23T13:21:28.648Z,83.66
2022-10-23T13:23:56.786Z,83.31
2022-10-23T13:26:28.480Z,83.52
2022-10-23T13:28:57.557Z,83.55
2022-10-23T13:31:32.243Z,83.30
2022-10-23T13:34:00.150Z,83.21
2022-10-23T13:36:29.937Z,83.00
2022-10-23T13:39:00.104Z,83.24
2022-10-23T13:41:34.150Z,83.51
2022-10-23T13:44:01.941Z,83.58
2022-10-23T13:46:30.005Z,83.27
2022-10-23T13:48:58.033Z,83.17
2022-10-23T13:51:28.852Z,82.98
2022-10-23T13:53:57.630Z,82.87
2022-10-23T13:56:27.471Z,82.99
2022-10-23T13:58:55.273Z,83.10
2022-10-23T14:01:26.305Z,83.26
2022-10-23T14:03:55.866Z,83.60
2022-10-23T14:06:23.989Z,83.71
2022-10-23T14:08:52.338Z,83.77
2022-10-23T14:11:20.765Z,83.99
2022-10-23T14:13:49.553Z,83.89
2022-10-23T14:16:19.655Z,83.46
2022-10-23T14:18:48.134Z,83.43
2022-10-23T14:21:19.839Z,83.38
2022-10-23T14:23:48.657Z,83.38
2022-10-23T14:26:21.836Z,83.48
2022-10-23T14:28:53.389Z,83.45
2022-10-23T14:31:22.284Z,83.66
2022-10-23T14:33:56.229Z,83.98
2022-10-23T14:36:28.254Z,84.25
2022-10-23T14:39:02.253Z,84.21
2022-10-23T14:41:29.962Z,84.24
2022-10-23T14:43:57.757Z,84.43
2022-10-23T14:46:25.639Z,84.41
2022-10-23T14:48:57.521Z,84.06
2022-10-23T14:51:32.572Z,84.28
2022-10-23T14:54:06.246Z,84.60
2022-10-23T14:56:37.791Z,84.42
2022-10-23T14:59:05.685Z,85.27
2022-10-23T15:01:43.685Z,84.99
2022-10-23T15:04:15.198Z,85.42
2022-10-23T15:06:44.298Z,85.74
2022-10-23T15:09:12.196Z,86.23
2022-10-23T15:11:40.003Z,86.39
2022-10-23T15:14:08.266Z,86.57
2022-10-23T15:16:41.329Z,86.65
2022-10-23T15:19:18.091Z,86.48
2022-10-23T15:21:48.104Z,86.54
2022-10-23T15:24:17.320Z,86.86
2022-10-23T15:26:45.282Z,87.11
2022-10-23T15:29:14.791Z,87.02
2022-10-23T15:31:49.183Z,87.03
2022-10-23T15:34:20.837Z,87.51
2022-10-23T15:36:50.071Z,87.99
2022-10-23T15:39:26.024Z,87.96
2022-10-23T15:41:55.949Z,88.34
2022-10-23T15:44:26.709Z,88.58
2022-10-23T15:46:57.068Z,89.47
2022-10-23T15:49:26.548Z,89.69
2022-10-23T15:51:54.441Z,89.25
2022-10-23T15:54:22.874Z,89.21
2022-10-23T15:56:53.134Z,90.33
2022-10-23T15:59:23.691Z,90.14
2022-10-23T16:01:52.105Z,90.61
2022-10-23T16:04:20.123Z,90.96
2022-10-23T16:06:48.614Z,91.45
2022-10-23T16:09:16.517Z,91.37
2022-10-23T16:11:44.535Z,91.40
2022-10-23T16:14:14.570Z,91.42
2022-10-23T16:16:42.829Z,92.02
2022-10-23T16:19:11.536Z,91.96
2022-10-23T16:21:39.433Z,92.24
2022-10-23T16:24:08.226Z,91.90
2022-10-23T16:26:36.841Z,91.32
2022-10-23T16:29:07.430Z,91.87
2022-10-23T16:31:35.653Z,91.94
2022-10-23T16:34:05.272Z,92.32
2022-10-23T16:36:34.482Z,92.00
2022-10-23T16:39:14.348Z,92.54
2022-10-23T16:42:20.469Z,93.09
2022-10-23T16:45:02.351Z,93.53
2022-10-23T16:47:33.799Z,93.52
2022-10-23T16:50:01.601Z,93.06
2022-10-23T16:52:29.960Z,93.18
2022-10-23T16:54:57.827Z,93.32
2022-10-23T16:57:27.885Z,93.84
2022-10-23T16:59:55.680Z,93.86
2022-10-23T17:02:23.604Z,93.98
2022-10-23T17:04:51.654Z,94.25
2022-10-23T17:07:19.601Z,94.04
2022-10-23T17:09:47.486Z,94.46
2022-10-23T17:12:16.753Z,94.36
2022-10-23T17:14:44.643Z,93.57
2022-10-23T17:17:12.432Z,93.21
2022-10-23T17:19:45.981Z,94.07
2022-10-23T17:22:16.426Z,93.62
2022-10-23T17:24:46.434Z,93.75
2022-10-23T17:27:16.956Z,94.15
2022-10-23T17:29:44.802Z,94.05
2022-10-23T17:32:12.758Z,94.08
2022-10-23T17:34:40.575Z,93.67
2022-10-23T17:37:10.131Z,93.94
2022-10-23T17:39:37.954Z,94.13
2022-10-23T17:42:16.334Z,94.13
2022-10-23T17:44:50.690Z,93.92
2022-10-23T17:47:18.507Z,94.36
2022-10-23T17:49:46.347Z,94.56
2022-10-23T17:52:15.027Z,94.76
2022-10-23T17:54:42.874Z,95.05
2022-10-23T17:57:10.791Z,95.68
2022-10-23T17:59:39.159Z,96.07
2022-10-23T18:02:07.197Z,96.86
2022-10-23T18:04:35.103Z,95.80
2022-10-23T18:07:02.758Z,95.79
2022-10-23T18:09:30.631Z,96.16
2022-10-23T18:11:58.446Z,97.15
2022-10-23T18:14:29.424Z,97.59
2022-10-23T18:16:57.722Z,97.66
2022-10-23T18:19:25.463Z,96.52
2022-10-23T18:21:53.330Z,96.09
2022-10-23T18:24:21.285Z,95.73
2022-10-23T18:26:49.261Z,95.41
2022-10-23T18:29:17.666Z,95.04
2022-10-23T18:31:48.099Z,95.13
2022-10-23T18:34:16.076Z,95.38
2022-10-23T18:36:44.102Z,95.94
2022-10-23T18:39:14.999Z,95.80
2022-10-23T18:41:44.954Z,95.74
2022-10-23T18:44:17.351Z,95.72
2022-10-23T18:46:46.407Z,95.98
2022-10-23T18:49:14.890Z,96.00
2022-10-23T18:51:42.997Z,95.88
2022-10-23T18:54:14.116Z,96.20
2022-10-23T18:56:42.998Z,96.49
2022-10-23T18:59:17.274Z,96.27
2022-10-23T19:01:45.122Z,96.50
2022-10-23T19:04:15.798Z,96.15
2022-10-23T19:06:44.136Z,96.22
2022-10-23T19:09:13.995Z,96.45
2022-10-23T19:11:42.833Z,96.20
2022-10-23T19:14:11.305Z,96.13
2022-10-23T19:17:08.649Z,96.53
2022-10-23T19:19:48.632Z,96.61
2022-10-23T19:22:16.994Z,96.36
2022-10-23T19:24:57.947Z,96.64
2022-10-23T19:27:27.001Z,96.54
2022-10-23T19:29:55.931Z,96.78
2022-10-23T19:32:23.839Z,96.71
2022-10-23T19:34:51.747Z,96.93
2022-10-23T19:37:20.130Z,96.94
2022-10-23T19:39:47.856Z,97.02
2022-10-23T19:42:15.748Z,96.95
2022-10-23T19:44:43.594Z,97.14
2022-10-23T19:47:11.483Z,97.39
2022-10-23T19:49:39.437Z,97.34
2022-10-23T19:52:07.378Z,97.41
2022-10-23T19:54:35.295Z,97.68
2022-10-23T19:57:03.334Z,97.53
2022-10-23T19:59:31.066Z,97.83
2022-10-23T20:01:59.226Z,97.75
2022-10-23T20:04:28.833Z,97.64
2022-10-23T20:06:56.686Z,97.60
2022-10-23T20:09:24.469Z,97.51
2022-10-23T20:11:52.336Z,97.45
2022-10-23T20:14:20.120Z,97.57
2022-10-23T20:16:50.169Z,97.78
2022-10-23T20:19:21.264Z,97.77
2022-10-23T20:21:49.290Z,97.86
2022-10-23T20:24:19.327Z,97.91
2022-10-23T20:26:51.042Z,97.95
2022-10-23T20:29:19.021Z,97.98
2022-10-23T20:31:47.921Z,97.98
2022-10-23T20:34:16.032Z,97.93
2022-10-23T20:36:46.944Z,97.99
2022-10-23T20:39:18.990Z,98.19
2022-10-23T20:41:47.624Z,98.32
2022-10-23T20:46:49.873Z,98.28
2022-10-23T20:49:18.134Z,98.27
2022-10-23T20:51:54.113Z,98.40
2022-10-23T20:54:25.429Z,98.28
2022-10-23T20:56:53.198Z,97.97
2022-10-23T20:59:21.085Z,97.82
2022-10-23T21:01:51.306Z,97.80
2022-10-23T21:04:22.508Z,98.46
2022-10-23T21:07:10.713Z,97.90
2022-10-23T21:09:40.063Z,98.12
2022-10-23T21:12:08.539Z,98.36
2022-10-23T21:14:36.565Z,98.05
2022-10-23T21:17:05.179Z,97.87
2022-10-23T21:19:33.251Z,97.87
2022-10-23T21:22:01.211Z,97.70
2022-10-23T21:24:29.028Z,97.63
2022-10-23T21:26:56.934Z,97.84
2022-10-23T21:29:24.814Z,97.45
2022-10-23T21:31:59.195Z,97.40
2022-10-23T21:34:27.972Z,97.51
2022-10-23T21:37:13.800Z,97.59
2022-10-23T21:39:43.677Z,97.51
2022-10-23T21:42:14.904Z,97.54
2022-10-23T21:44:42.978Z,97.54
2022-10-23T21:47:10.908Z,97.57
2022-10-23T21:49:38.667Z,97.64
2022-10-23T21:52:06.591Z,97.69
2022-10-23T21:54:34.406Z,98.01
2022-10-23T21:57:04.137Z,98.20
2022-10-23T21:59:35.490Z,97.75
2022-10-23T22:02:04.357Z,97.97
2022-10-23T22:04:32.240Z,97.96
2022-10-23T22:07:00.339Z,97.55
2022-10-23T22:09:28.976Z,97.44
2022-10-23T22:11:57.333Z,97.61
2022-10-23T22:14:27.314Z,97.37
2022-10-23T22:16:55.945Z,97.15
2022-10-23T22:19:23.782Z,97.16
2022-10-23T22:21:51.704Z,97.17
2022-10-23T22:24:20.125Z,97.40
2022-10-23T22:26:51.465Z,97.59
2022-10-23T22:29:22.427Z,97.30
2022-10-23T22:31:51.898Z,97.06
2022-10-23T22:34:48.424Z,96.96
2022-10-23T22:37:14.828Z,96.91
2022-10-23T22:39:42.787Z,96.71
2022-10-23T22:42:11.057Z,96.59
2022-10-23T22:44:38.774Z,96.34
2022-10-23T22:47:06.882Z,96.29
2022-10-23T22:49:36.039Z,96.11
2022-10-23T22:52:04.758Z,95.94
2022-10-23T22:54:32.646Z,95.80
2022-10-23T22:57:00.810Z,95.52
2022-10-23T22:59:28.611Z,95.34
2022-10-23T23:01:56.365Z,95.23
2022-10-23T23:04:39.854Z,95.12
2022-10-23T23:07:11.983Z,95.03
2022-10-23T23:09:42.536Z,94.82
2022-10-23T23:12:13.572Z,94.82
2022-10-23T23:14:42.435Z,94.74
2022-10-23T23:17:10.770Z,94.65
2022-10-23T23:19:38.603Z,94.64
2022-10-23T23:22:06.530Z,94.62
2022-10-23T23:24:34.441Z,94.53
2022-10-23T23:27:02.410Z,94.55
2022-10-23T23:29:30.163Z,94.48
2022-10-23T23:31:58.114Z,94.03
2022-10-23T23:34:26.463Z,93.75
2022-10-23T23:36:54.264Z,93.61
2022-10-23T23:39:22.024Z,93.50
2022-10-23T23:41:49.866Z,93.60
2022-10-23T23:44:17.586Z,93.46
2022-10-23T23:46:45.315Z,93.45
2022-10-23T23:49:13.105Z,93.28
2022-10-23T23:51:41.094Z,93.30
2022-10-23T23:54:08.838Z,93.28
2022-10-23T23:56:36.673Z,93.16
2022-10-23T23:59:04.686Z,93.03
